Карточка аэропорта USTR

Внимание!
Информация на этой странице в стадии наполнения.
Если вы не увидели какой-то информации, или заметили неточность - пожалуйста сообщите нам!
Спасибо!
Команда XR-STAFF
Название аэропортаРощино
Название аэропорта (англ.)Roshschino
Превышение378 ft. (115.2 m.)
Координаты57°10.098', 65°19.002'
Высота перехода700m
Эшелон переходаFL040
Коды ответчика5101-5137
Зона ОрВДТюмень РПИ (USTV)
Данные METARUSTR 171800Z 21004MPS CAVOK 11/10 Q1001 R21/290060 R30/////99 TEMPO 2100 BR
Проноз погоды (TAF)USTR 171632Z 1718/1818 21003G08MPS 2100 BR SCT006 SCT020 TEMPO 1718/1804 0500 FG VV002 FM180600 18005G12MPS 9999 SCT020 TEMPO 1806/1812 -TSRA BKN016CB BECMG 1809/1810 20006G14MPS BECMG 1815/1816 17003MPS
NOTAMshow/hide NOTAM
AWOS   TABLE

Информация о ВПП

ВПП Длина ВПП (м.) Покрытие Курс ВПП Частота ILS
122704Асфальтобетон121 
302704Асфальтобетон301 
033003Асфальтобетон34108.3
213003Асфальтобетон214110.7

Диспетчерские позиции

Позывной Наименование органа УВД Частота
USTR_GNDТюмень-Руление119.000
USTR_TWRТюмень-Старт118.200
USTR_R_APPТюмень-Круг126.100



Спутниковое изображение